createdAt,value
2018-10-18T00:41:48.276Z,1011.48
2018-10-18T00:42:49.074Z,1011.45
2018-10-18T00:43:49.072Z,1011.43
2018-10-18T00:44:49.053Z,1011.47
2018-10-18T00:45:49.086Z,1011.41
2018-10-18T00:46:49.071Z,1011.45
2018-10-18T00:47:49.015Z,1011.44
2018-10-18T00:48:49.017Z,1011.44
2018-10-18T00:49:49.044Z,1011.44
2018-10-18T00:50:49.137Z,1011.47
2018-10-18T00:51:48.997Z,1011.47
2018-10-18T00:52:48.999Z,1011.49
2018-10-18T00:53:48.989Z,1011.47
2018-10-18T00:54:48.999Z,1011.53
2018-10-18T00:55:48.932Z,1011.54
2018-10-18T00:56:49.174Z,1011.55
2018-10-18T00:57:49.122Z,1011.63
2018-10-18T00:58:49.096Z,1011.59
2018-10-18T00:59:49.039Z,1011.62
2018-10-18T01:00:49.090Z,1011.63
2018-10-18T01:01:49.123Z,1011.63
2018-10-18T01:02:49.100Z,1011.63
2018-10-18T01:03:49.142Z,1011.64
2018-10-18T01:04:49.095Z,1011.68
2018-10-18T01:05:49.074Z,1011.68
2018-10-18T01:06:49.022Z,1011.67
2018-10-18T01:07:48.816Z,1011.70
2018-10-18T01:08:48.825Z,1011.71
2018-10-18T01:09:48.811Z,1011.68
2018-10-18T01:10:48.774Z,1011.70
2018-10-18T01:11:48.779Z,1011.71
2018-10-18T01:12:48.770Z,1011.71
2018-10-18T01:13:48.756Z,1011.72
2018-10-18T01:14:48.744Z,1011.71
2018-10-18T01:15:48.837Z,1011.72
2018-10-18T01:16:48.727Z,1011.75
2018-10-18T01:17:48.742Z,1011.74
2018-10-18T01:18:48.691Z,1011.71
2018-10-18T01:19:48.692Z,1011.71
2018-10-18T01:20:48.680Z,1011.72
2018-10-18T01:21:48.678Z,1011.73
2018-10-18T01:22:48.635Z,1011.76
2018-10-18T01:23:48.623Z,1011.73
2018-10-18T01:24:48.677Z,1011.71
2018-10-18T01:25:48.701Z,1011.76
2018-10-18T01:26:48.615Z,1011.69
2018-10-18T01:27:48.575Z,1011.72
2018-10-18T01:28:48.607Z,1011.76
2018-10-18T01:29:48.581Z,1011.80
2018-10-18T01:30:48.568Z,1011.78
2018-10-18T01:31:48.562Z,1011.80
2018-10-18T01:32:48.554Z,1011.84
2018-10-18T01:33:48.515Z,1011.78
2018-10-18T01:34:48.566Z,1011.79
2018-10-18T01:35:48.567Z,1011.82
2018-10-18T01:36:48.504Z,1011.77
2018-10-18T01:37:48.519Z,1011.84
2018-10-18T01:38:48.524Z,1011.83
2018-10-18T01:39:48.493Z,1011.81
2018-10-18T01:40:48.434Z,1011.88
2018-10-18T01:41:48.462Z,1011.82
2018-10-18T01:42:48.481Z,1011.86
2018-10-18T01:43:48.421Z,1011.84
2018-10-18T01:44:48.468Z,1011.92
2018-10-18T01:45:48.450Z,1011.90
2018-10-18T01:46:48.397Z,1011.89
2018-10-18T01:47:48.444Z,1011.89
2018-10-18T01:48:48.467Z,1011.93
2018-10-18T01:49:48.556Z,1011.92
2018-10-18T01:50:48.516Z,1011.92
2018-10-18T01:51:48.611Z,1011.94
2018-10-18T01:52:48.587Z,1011.95
2018-10-18T01:53:48.411Z,1011.94
2018-10-18T01:54:48.492Z,1011.99
2018-10-18T01:55:48.468Z,1011.95
2018-10-18T01:56:48.454Z,1011.98
2018-10-18T01:57:48.385Z,1011.98
2018-10-18T01:58:48.250Z,1011.99
2018-10-18T01:59:48.256Z,1012.01
2018-10-18T02:00:48.319Z,1011.99
2018-10-18T02:01:48.233Z,1012.01
2018-10-18T02:02:48.242Z,1011.93
2018-10-18T02:03:48.232Z,1011.98
2018-10-18T02:04:48.188Z,1011.99
2018-10-18T02:05:48.166Z,1011.98
2018-10-18T02:06:48.204Z,1012.00
2018-10-18T02:07:48.234Z,1011.96
2018-10-18T02:08:48.164Z,1012.02
2018-10-18T02:09:48.169Z,1011.97
2018-10-18T02:10:48.122Z,1012.01
2018-10-18T02:11:48.162Z,1011.98
2018-10-18T02:12:48.105Z,1012.01
2018-10-18T02:13:48.136Z,1012.01
2018-10-18T02:14:48.086Z,1012.03
2018-10-18T02:15:48.131Z,1012.02
2018-10-18T02:16:48.069Z,1012.04
2018-10-18T02:17:48.062Z,1012.04
2018-10-18T02:18:48.067Z,1012.07
2018-10-18T02:19:48.062Z,1012.06
2018-10-18T02:20:48.002Z,1012.06
2018-10-18T02:21:48.001Z,1012.05
2018-10-18T02:22:48.027Z,1012.03
2018-10-18T02:23:47.986Z,1012.04
2018-10-18T02:24:47.963Z,1012.03
2018-10-18T02:25:47.984Z,1012.03
2018-10-18T02:26:47.987Z,1012.04
2018-10-18T02:27:48.029Z,1012.04
2018-10-18T02:28:47.945Z,1012.10
2018-10-18T02:29:47.951Z,1012.07
2018-10-18T02:30:47.908Z,1012.08
2018-10-18T02:31:47.878Z,1012.05
2018-10-18T02:32:47.894Z,1012.03
2018-10-18T02:33:47.916Z,1012.02
2018-10-18T02:34:47.904Z,1012.03
2018-10-18T02:35:47.924Z,1012.03
2018-10-18T02:36:47.822Z,1012.04
2018-10-18T02:37:47.847Z,1012.08
2018-10-18T02:38:47.852Z,1012.03
2018-10-18T02:39:47.870Z,1012.06
2018-10-18T02:40:47.816Z,1012.08
2018-10-18T02:52:32.578Z,1012.14
2018-10-18T02:53:33.532Z,1012.16
2018-10-18T02:54:33.490Z,1012.12
2018-10-18T02:55:33.476Z,1012.14
2018-10-18T02:56:33.454Z,1012.15
2018-10-18T02:57:33.463Z,1012.13
2018-10-18T02:58:33.428Z,1012.13
2018-10-18T02:59:33.452Z,1012.17
2018-10-18T03:00:33.421Z,1012.11
2018-10-18T03:01:33.406Z,1012.10
2018-10-18T03:02:33.428Z,1012.13
2018-10-18T03:03:33.374Z,1012.11
2018-10-18T03:04:33.380Z,1012.11
2018-10-18T03:05:33.390Z,1012.11
2018-10-18T03:06:33.382Z,1012.11
2018-10-18T03:07:33.360Z,1012.14
2018-10-18T03:08:33.322Z,1012.19
2018-10-18T03:09:33.347Z,1012.20
2018-10-18T03:10:33.308Z,1012.23
2018-10-18T03:11:33.287Z,1012.16
2018-10-18T03:12:33.301Z,1012.20
2018-10-18T03:13:33.266Z,1012.21
2018-10-18T03:14:33.245Z,1012.23
2018-10-18T03:15:33.251Z,1012.21
2018-10-18T03:16:33.224Z,1012.19
2018-10-18T03:17:33.241Z,1012.24
2018-10-18T03:18:33.202Z,1012.26
2018-10-18T03:19:33.225Z,1012.24
2018-10-18T03:20:33.192Z,1012.27
2018-10-18T03:21:33.169Z,1012.28
2018-10-18T03:22:33.187Z,1012.27
2018-10-18T03:23:33.149Z,1012.26
2018-10-18T03:24:33.141Z,1012.26
2018-10-18T03:25:33.152Z,1012.27
2018-10-18T03:26:33.114Z,1012.30
2018-10-18T03:27:33.130Z,1012.28
2018-10-18T03:28:33.095Z,1012.29
2018-10-18T03:29:33.091Z,1012.28
2018-10-18T03:30:33.090Z,1012.32
2018-10-18T03:31:33.076Z,1012.27
2018-10-18T03:32:33.102Z,1012.26
2018-10-18T03:33:33.053Z,1012.26
2018-10-18T03:34:33.038Z,1012.27
2018-10-18T03:35:33.023Z,1012.27
2018-10-18T03:36:33.008Z,1012.28
2018-10-18T03:37:33.016Z,1012.29
2018-10-18T03:38:32.980Z,1012.30
2018-10-18T03:39:32.983Z,1012.24
2018-10-18T03:40:32.969Z,1012.26
2018-10-18T03:41:33.068Z,1012.23
2018-10-18T03:42:32.966Z,1012.25
2018-10-18T03:43:32.956Z,1012.24
2018-10-18T03:44:32.951Z,1012.27
2018-10-18T03:45:32.902Z,1012.25
2018-10-18T03:46:32.907Z,1012.32
2018-10-18T03:47:32.882Z,1012.30
2018-10-18T03:48:32.893Z,1012.23
2018-10-18T03:49:32.879Z,1012.27
2018-10-18T03:50:32.886Z,1012.25
2018-10-18T03:51:32.845Z,1012.27
2018-10-18T03:52:32.847Z,1012.26
2018-10-18T03:53:32.846Z,1012.24
2018-10-18T03:54:33.035Z,1012.21
2018-10-18T03:55:32.831Z,1012.29
2018-10-18T03:56:32.786Z,1012.24
2018-10-18T03:57:32.773Z,1012.27
2018-10-18T03:58:32.774Z,1012.23
2018-10-18T03:59:32.831Z,1012.22
2018-10-18T04:00:32.758Z,1012.26
2018-10-18T04:01:32.734Z,1012.27
2018-10-18T04:02:32.728Z,1012.25
2018-10-18T04:03:32.710Z,1012.26
2018-10-18T04:04:32.733Z,1012.24
2018-10-18T04:05:32.702Z,1012.30
2018-10-18T04:06:32.681Z,1012.29
2018-10-18T04:07:32.667Z,1012.32
2018-10-18T04:08:32.686Z,1012.31
2018-10-18T04:09:32.654Z,1012.28
2018-10-18T04:10:32.635Z,1012.31
2018-10-18T04:11:32.640Z,1012.33
2018-10-18T04:12:32.616Z,1012.30
2018-10-18T04:13:32.609Z,1012.34
2018-10-18T04:14:32.614Z,1012.39
2018-10-18T04:15:32.596Z,1012.36
2018-10-18T04:16:32.567Z,1012.37
2018-10-18T04:17:32.562Z,1012.34
2018-10-18T04:18:32.572Z,1012.37
2018-10-18T04:19:32.552Z,1012.35
2018-10-18T04:20:32.551Z,1012.40
2018-10-18T04:21:32.517Z,1012.42
2018-10-18T04:22:32.498Z,1012.37
2018-10-18T04:23:32.486Z,1012.40
2018-10-18T04:24:32.495Z,1012.41
2018-10-18T04:25:32.523Z,1012.40
2018-10-18T04:26:32.479Z,1012.43
2018-10-18T04:27:32.455Z,1012.47
2018-10-18T04:28:32.440Z,1012.46
2018-10-18T04:29:32.450Z,1012.51
2018-10-18T04:30:32.420Z,1012.46
2018-10-18T04:31:32.437Z,1012.50
2018-10-18T04:32:32.409Z,1012.53
2018-10-18T04:33:32.378Z,1012.57
2018-10-18T04:34:32.381Z,1012.60
2018-10-18T04:35:32.355Z,1012.59
2018-10-18T04:36:32.348Z,1012.58
2018-10-18T04:37:32.427Z,1012.57
2018-10-18T04:38:32.328Z,1012.57
2018-10-18T04:39:32.343Z,1012.57
2018-10-18T04:40:32.334Z,1012.54
2018-10-18T04:41:32.314Z,1012.55
2018-10-18T04:42:32.294Z,1012.56
2018-10-18T04:43:32.290Z,1012.58
2018-10-18T04:44:32.278Z,1012.57
2018-10-18T04:45:32.258Z,1012.60
2018-10-18T04:46:32.290Z,1012.63
2018-10-18T04:47:32.266Z,1012.60
2018-10-18T04:48:32.341Z,1012.58
2018-10-18T04:49:32.235Z,1012.60
2018-10-18T04:50:32.238Z,1012.58
2018-10-18T04:51:32.202Z,1012.60
2018-10-18T05:56:26.026Z,1013.04
2018-10-18T05:57:26.966Z,1013.01
2018-10-18T05:58:26.963Z,1013.00
2018-10-18T05:59:26.947Z,1013.03
2018-10-18T06:00:26.995Z,1013.02
2018-10-18T06:01:26.970Z,1013.02
2018-10-18T06:02:26.921Z,1013.01
2018-10-18T06:03:26.919Z,1012.96
2018-10-18T06:04:26.907Z,1012.95
2018-10-18T06:05:26.912Z,1012.99
2018-10-18T06:06:26.914Z,1012.98
2018-10-18T06:07:26.918Z,1012.96
2018-10-18T06:08:26.879Z,1012.94
2018-10-18T06:09:26.892Z,1012.96
2018-10-18T06:10:26.864Z,1012.98
2018-10-18T06:11:26.849Z,1012.96
2018-10-18T06:12:26.834Z,1012.93
2018-10-18T06:13:26.829Z,1012.97
2018-10-18T06:14:26.816Z,1012.99
2018-10-18T06:15:26.825Z,1012.96
2018-10-18T06:16:26.802Z,1012.93
2018-10-18T06:17:26.838Z,1012.97
2018-10-18T06:18:26.753Z,1012.94
2018-10-18T06:19:26.745Z,1012.97
2018-10-18T06:20:26.729Z,1012.97
2018-10-18T06:21:26.729Z,1012.96
2018-10-18T06:22:26.781Z,1012.99
2018-10-18T06:23:26.837Z,1013.00
2018-10-18T06:24:26.688Z,1012.99
2018-10-18T06:25:26.704Z,1012.99
2018-10-18T06:26:26.703Z,1012.95
2018-10-18T06:27:26.693Z,1012.95
2018-10-18T06:28:26.649Z,1012.94
2018-10-18T06:29:26.660Z,1012.98
2018-10-18T06:30:26.623Z,1013.01
2018-10-18T06:31:26.624Z,1012.96
2018-10-18T06:32:26.623Z,1013.04
2018-10-18T06:33:26.585Z,1012.98
2018-10-18T06:34:26.614Z,1013.01
2018-10-18T06:35:26.561Z,1013.09
2018-10-18T06:36:26.569Z,1013.07
2018-10-18T06:37:26.718Z,1013.10
2018-10-18T06:38:26.535Z,1013.10
2018-10-18T06:39:26.527Z,1013.14
2018-10-18T06:40:26.509Z,1013.09
2018-10-18T06:41:26.521Z,1013.13
2018-10-18T06:42:26.512Z,1013.09
2018-10-18T06:43:26.499Z,1013.07
2018-10-18T06:44:26.507Z,1013.09
2018-10-18T06:45:26.467Z,1013.05
2018-10-18T06:46:26.459Z,1013.07
2018-10-18T06:47:26.889Z,1013.09
2018-10-18T06:48:26.510Z,1013.09
2018-10-18T06:49:26.507Z,1013.08
2018-10-18T06:50:26.406Z,1013.06
2018-10-18T06:51:26.415Z,1013.08
2018-10-18T06:52:26.429Z,1013.07
2018-10-18T06:53:27.254Z,1013.08
2018-10-18T06:54:26.367Z,1013.06
2018-10-18T06:55:26.346Z,1013.11
2018-10-18T06:56:26.339Z,1013.10
2018-10-18T06:57:26.328Z,1013.09
2018-10-18T06:58:26.312Z,1013.12
2018-10-18T06:59:26.331Z,1013.17
2018-10-18T07:00:26.391Z,1013.13
2018-10-18T07:01:26.346Z,1013.13
2018-10-18T07:02:26.282Z,1013.12
2018-10-18T07:03:26.256Z,1013.10
2018-10-18T07:04:26.243Z,1013.16
2018-10-18T07:05:26.243Z,1013.20
2018-10-18T07:06:26.240Z,1013.14
2018-10-18T07:07:26.270Z,1013.21
2018-10-18T07:08:26.217Z,1013.22
2018-10-18T07:09:26.209Z,1013.20
2018-10-18T07:10:26.223Z,1013.23
2018-10-18T07:11:26.181Z,1013.23
2018-10-18T07:12:26.159Z,1013.23
2018-10-18T07:13:26.144Z,1013.24
2018-10-18T07:14:26.162Z,1013.32
2018-10-18T07:15:26.159Z,1013.30
2018-10-18T07:16:26.185Z,1013.32
2018-10-18T07:17:26.165Z,1013.37
2018-10-18T07:18:26.102Z,1013.34
2018-10-18T07:19:26.089Z,1013.37
2018-10-18T07:20:26.069Z,1013.36
2018-10-18T07:21:26.069Z,1013.36
2018-10-18T07:22:26.061Z,1013.40
2018-10-18T07:23:26.054Z,1013.40
2018-10-18T07:24:26.010Z,1013.41
2018-10-18T07:25:26.048Z,1013.44
2018-10-18T07:26:25.994Z,1013.48
2018-10-18T07:27:26.014Z,1013.48
2018-10-18T07:28:25.964Z,1013.47
2018-10-18T07:29:25.983Z,1013.53
2018-10-18T07:30:25.974Z,1013.55
2018-10-18T07:31:25.971Z,1013.50
2018-10-18T07:32:26.051Z,1013.58
2018-10-18T07:33:25.934Z,1013.58
2018-10-18T07:34:25.904Z,1013.56
2018-10-18T07:35:25.892Z,1013.56
2018-10-18T07:36:25.898Z,1013.56
2018-10-18T07:37:25.937Z,1013.56
2018-10-18T07:38:25.886Z,1013.58
2018-10-18T07:39:25.849Z,1013.55
2018-10-18T07:40:25.881Z,1013.57
2018-10-18T07:41:25.893Z,1013.56
2018-10-18T07:42:25.829Z,1013.57
2018-10-18T07:43:25.880Z,1013.60
2018-10-18T07:44:25.865Z,1013.57
2018-10-18T07:45:25.856Z,1013.61
2018-10-18T07:46:25.769Z,1013.64
2018-10-18T07:47:25.784Z,1013.63
2018-10-18T07:48:25.761Z,1013.64
2018-10-18T07:49:25.746Z,1013.63
2018-10-18T07:50:25.766Z,1013.65
2018-10-18T07:51:25.750Z,1013.62
2018-10-18T07:52:25.764Z,1013.63
2018-10-18T07:53:25.757Z,1013.60
2018-10-18T07:54:25.719Z,1013.61
2018-10-18T07:55:25.712Z,1013.62
2018-10-18T07:57:58.413Z,1013.60
2018-10-18T07:58:59.377Z,1013.61
2018-10-18T07:59:59.419Z,1013.63
2018-10-18T08:00:59.374Z,1013.62
2018-10-18T08:01:59.341Z,1013.63
2018-10-18T08:02:59.371Z,1013.65
2018-10-18T08:03:59.320Z,1013.62
2018-10-18T08:04:59.300Z,1013.66
2018-10-18T08:05:59.301Z,1013.65
2018-10-18T08:06:59.295Z,1013.62
2018-10-18T08:07:59.301Z,1013.64
2018-10-18T08:08:59.255Z,1013.63
2018-10-18T08:09:59.312Z,1013.59
2018-10-18T08:10:59.232Z,1013.61
2018-10-18T08:11:59.207Z,1013.61
2018-10-18T08:12:59.274Z,1013.59
2018-10-18T08:13:59.196Z,1013.59
2018-10-18T08:14:59.173Z,1013.56
2018-10-18T08:15:59.223Z,1013.60
2018-10-18T08:16:59.206Z,1013.67
2018-10-18T08:17:59.192Z,1013.67
2018-10-18T08:18:59.238Z,1013.67
2018-10-18T08:19:59.190Z,1013.61
2018-10-18T08:20:59.169Z,1013.67
2018-10-18T08:21:59.126Z,1013.68
2018-10-18T08:22:59.111Z,1013.69
2018-10-18T08:23:59.103Z,1013.73
2018-10-18T08:24:59.133Z,1013.75
2018-10-18T08:25:59.093Z,1013.70
2018-10-18T08:26:59.069Z,1013.70
2018-10-18T08:27:59.069Z,1013.71
2018-10-18T08:28:59.081Z,1013.72
2018-10-18T08:29:59.017Z,1013.72
2018-10-18T08:30:59.024Z,1013.71
2018-10-18T08:31:59.054Z,1013.71
2018-10-18T08:32:59.012Z,1013.72
2018-10-18T08:33:58.993Z,1013.72
2018-10-18T08:34:59.051Z,1013.73
2018-10-18T08:35:58.986Z,1013.72
2018-10-18T08:36:59.035Z,1013.73
2018-10-18T08:37:59.156Z,1013.76
2018-10-18T08:38:59.071Z,1013.78
2018-10-18T08:39:58.939Z,1013.77
2018-10-18T08:40:58.941Z,1013.76
2018-10-18T08:41:58.885Z,1013.72
2018-10-18T08:42:58.891Z,1013.78
2018-10-18T08:43:59.001Z,1013.82
2018-10-18T08:44:58.857Z,1013.82
2018-10-18T08:45:58.835Z,1013.82
2018-10-18T08:46:58.848Z,1013.83
2018-10-18T08:47:58.819Z,1013.84
2018-10-18T08:48:58.855Z,1013.85
2018-10-18T08:49:58.859Z,1013.84
2018-10-18T08:50:58.814Z,1013.74
2018-10-18T08:51:58.782Z,1013.77
2018-10-18T08:52:58.780Z,1013.73
2018-10-18T08:53:58.781Z,1013.72
2018-10-18T08:54:58.796Z,1013.77
2018-10-18T08:55:58.788Z,1013.75
2018-10-18T08:56:58.733Z,1013.78
2018-10-18T08:57:58.735Z,1013.79
2018-10-18T08:58:58.777Z,1013.79
2018-10-18T08:59:58.703Z,1013.77
2018-10-18T09:00:58.696Z,1013.75
2018-10-18T09:01:58.685Z,1013.74
2018-10-18T09:02:58.662Z,1013.76
2018-10-18T09:03:58.658Z,1013.73
2018-10-18T09:04:58.644Z,1013.75
2018-10-18T09:05:58.624Z,1013.70
2018-10-18T09:06:58.682Z,1013.73
2018-10-18T09:07:58.614Z,1013.72
2018-10-18T09:08:58.642Z,1013.67
2018-10-18T09:09:58.604Z,1013.68
2018-10-18T09:10:58.575Z,1013.68
2018-10-18T09:11:58.565Z,1013.71
2018-10-18T09:12:58.651Z,1013.71
2018-10-18T09:13:58.590Z,1013.70
2018-10-18T09:14:58.547Z,1013.74
2018-10-18T09:15:58.602Z,1013.77
2018-10-18T09:16:58.567Z,1013.76
2018-10-18T09:17:58.490Z,1013.74
2018-10-18T09:18:58.543Z,1013.73
2018-10-18T09:19:58.477Z,1013.77
2018-10-18T09:20:58.453Z,1013.75
2018-10-18T09:21:58.450Z,1013.73
2018-10-18T09:22:58.435Z,1013.74
2018-10-18T09:23:58.579Z,1013.73
2018-10-18T09:24:58.444Z,1013.78
2018-10-18T09:25:58.405Z,1013.74
2018-10-18T09:26:58.394Z,1013.76
2018-10-18T09:27:58.404Z,1013.72
2018-10-18T09:28:58.378Z,1013.74
2018-10-18T09:29:58.382Z,1013.76
2018-10-18T09:30:58.363Z,1013.78
2018-10-18T09:31:58.334Z,1013.75
2018-10-18T09:32:58.340Z,1013.76
2018-10-18T09:33:58.344Z,1013.72
2018-10-18T09:34:58.323Z,1013.74
2018-10-18T09:35:58.330Z,1013.74
2018-10-18T09:36:58.299Z,1013.76
2018-10-18T09:37:58.300Z,1013.78
2018-10-18T09:38:58.255Z,1013.85
2018-10-18T09:39:58.278Z,1013.73
2018-10-18T09:40:58.244Z,1013.75
2018-10-18T09:41:58.222Z,1013.75
2018-10-18T09:42:58.307Z,1013.70
2018-10-18T09:43:58.212Z,1013.73
2018-10-18T09:44:58.300Z,1013.72
2018-10-18T09:45:58.238Z,1013.70
2018-10-18T09:46:58.191Z,1013.75
2018-10-18T09:47:58.175Z,1013.72
2018-10-18T09:48:58.167Z,1013.72
2018-10-18T09:49:58.164Z,1013.74
2018-10-18T09:50:58.179Z,1013.77
2018-10-18T09:51:58.131Z,1013.80
2018-10-18T09:52:58.184Z,1013.80
2018-10-18T09:53:58.130Z,1013.82
2018-10-18T09:54:58.115Z,1013.84
2018-10-18T09:55:58.112Z,1013.84
2018-10-18T09:56:58.082Z,1013.88
2018-10-18T09:59:07.578Z,1013.96
2018-10-18T10:00:11.137Z,1014.00
2018-10-18T10:01:08.394Z,1014.02
2018-10-18T10:02:08.258Z,1013.99
2018-10-18T10:03:08.260Z,1014.01
2018-10-18T10:04:08.236Z,1014.04
2018-10-18T10:05:08.259Z,1014.06
2018-10-18T10:06:08.219Z,1014.04
2018-10-18T10:07:08.264Z,1014.04
2018-10-18T10:08:08.199Z,1014.02
2018-10-18T10:09:08.168Z,1013.98
2018-10-18T10:10:08.188Z,1014.08
2018-10-18T10:11:08.153Z,1014.09
2018-10-18T10:12:08.149Z,1014.11
2018-10-18T10:13:08.154Z,1014.11
2018-10-18T10:14:08.164Z,1014.12
2018-10-18T10:15:08.125Z,1014.15
2018-10-18T10:16:08.106Z,1014.12
2018-10-18T10:17:08.172Z,1014.16
2018-10-18T10:18:08.135Z,1014.16
2018-10-18T10:19:08.177Z,1014.14
2018-10-18T10:20:08.078Z,1014.09
2018-10-18T10:21:08.067Z,1014.10
2018-10-18T10:22:08.041Z,1014.14
2018-10-18T10:23:08.042Z,1014.10
2018-10-18T10:24:08.006Z,1014.08
2018-10-18T10:25:08.111Z,1014.10
2018-10-18T10:26:07.986Z,1014.10
2018-10-18T10:27:07.974Z,1014.08
2018-10-18T10:28:07.953Z,1014.06
2018-10-18T10:29:07.940Z,1014.10
2018-10-18T10:30:08.007Z,1014.12
2018-10-18T10:31:07.957Z,1014.12
2018-10-18T10:32:07.921Z,1014.11
2018-10-18T10:33:07.988Z,1014.09
2018-10-18T10:34:07.892Z,1014.06
2018-10-18T10:35:07.985Z,1014.07
2018-10-18T10:36:07.880Z,1013.99
2018-10-18T10:37:07.940Z,1014.02
2018-10-18T10:38:07.845Z,1013.99
2018-10-18T10:39:07.850Z,1013.96
2018-10-18T10:40:07.916Z,1013.98
2018-10-18T10:41:07.949Z,1014.00
2018-10-18T10:42:07.857Z,1013.98
2018-10-18T10:43:07.830Z,1013.96
2018-10-18T10:44:07.804Z,1013.99
2018-10-18T10:45:07.850Z,1013.95
2018-10-18T10:46:07.877Z,1013.98
2018-10-18T10:47:07.765Z,1013.97
2018-10-18T10:48:07.857Z,1013.94
2018-10-18T10:49:08.583Z,1013.99
2018-10-18T10:50:07.784Z,1013.99
2018-10-18T10:51:07.843Z,1013.94
2018-10-18T10:52:07.808Z,1013.96
2018-10-18T10:53:07.689Z,1013.90
2018-10-18T10:54:07.819Z,1013.95
2018-10-18T10:55:07.698Z,1013.94
2018-10-18T10:56:07.683Z,1013.95
2018-10-18T10:57:07.712Z,1013.95
2018-10-18T10:58:07.945Z,1013.92
2018-10-18T10:59:07.684Z,1013.92
2018-10-18T11:00:08.604Z,1013.89
2018-10-18T11:01:07.607Z,1013.86
2018-10-18T11:02:07.710Z,1013.85
2018-10-18T11:03:07.642Z,1013.85
2018-10-18T11:04:07.577Z,1013.88
2018-10-18T11:05:07.564Z,1013.86
2018-10-18T11:06:07.709Z,1013.92
2018-10-18T11:07:07.528Z,1013.84
2018-10-18T11:08:07.561Z,1013.88
2018-10-18T11:09:07.651Z,1013.87
2018-10-18T11:10:07.498Z,1013.84
2018-10-18T11:11:07.501Z,1013.85
2018-10-18T11:12:07.627Z,1013.83
2018-10-18T11:13:07.468Z,1013.80
2018-10-18T11:14:07.562Z,1013.80
2018-10-18T11:15:07.582Z,1013.77
2018-10-18T11:16:07.459Z,1013.77
2018-10-18T11:17:07.495Z,1013.78
2018-10-18T11:18:07.437Z,1013.76
2018-10-18T11:19:07.409Z,1013.76
2018-10-18T11:20:07.468Z,1013.74
2018-10-18T11:21:07.521Z,1013.71
2018-10-18T11:22:07.368Z,1013.74
2018-10-18T11:23:07.374Z,1013.75
2018-10-18T11:24:07.464Z,1013.74
2018-10-18T11:25:07.345Z,1013.72
2018-10-18T11:26:07.435Z,1013.64
2018-10-18T11:27:07.359Z,1013.63
2018-10-18T11:28:07.327Z,1013.69
2018-10-18T11:29:07.286Z,1013.66
2018-10-18T11:30:07.371Z,1013.65
2018-10-18T11:31:07.323Z,1013.67
2018-10-18T11:32:07.313Z,1013.67
2018-10-18T11:33:07.258Z,1013.69
2018-10-18T11:34:07.260Z,1013.65
2018-10-18T11:35:07.226Z,1013.63
2018-10-18T11:36:07.318Z,1013.66
2018-10-18T11:37:07.196Z,1013.64
2018-10-18T11:38:07.229Z,1013.67
2018-10-18T11:39:07.160Z,1013.59
2018-10-18T11:40:07.192Z,1013.59
2018-10-18T11:41:07.174Z,1013.60
2018-10-18T11:42:07.152Z,1013.61
2018-10-18T11:43:07.133Z,1013.54
2018-10-18T11:44:07.235Z,1013.47
2018-10-18T11:45:07.159Z,1013.57
2018-10-18T11:46:07.103Z,1013.56
2018-10-18T11:47:07.093Z,1013.53
2018-10-18T11:48:07.161Z,1013.54
2018-10-18T11:49:07.071Z,1013.49
2018-10-18T11:50:07.078Z,1013.50
2018-10-18T11:51:07.103Z,1013.48
2018-10-18T11:52:07.168Z,1013.52
2018-10-18T11:53:07.027Z,1013.55
2018-10-18T11:54:07.060Z,1013.55
2018-10-18T11:55:07.029Z,1013.51
2018-10-18T11:56:07.053Z,1013.53
2018-10-18T11:57:06.992Z,1013.54
2018-10-18T11:58:06.979Z,1013.53
2018-10-18T12:00:20.363Z,1013.53
2018-10-18T12:01:21.446Z,1013.55
2018-10-18T12:02:21.375Z,1013.54
2018-10-18T12:03:21.338Z,1013.58
2018-10-18T12:04:21.335Z,1013.52
2018-10-18T12:05:21.317Z,1013.53
2018-10-18T12:06:21.316Z,1013.52
2018-10-18T12:07:21.294Z,1013.56
2018-10-18T12:08:21.255Z,1013.52
2018-10-18T12:09:21.237Z,1013.56
2018-10-18T12:10:21.260Z,1013.50
2018-10-18T12:11:21.232Z,1013.50
2018-10-18T12:12:21.297Z,1013.57
2018-10-18T12:13:21.198Z,1013.57
2018-10-18T12:14:21.181Z,1013.60
2018-10-18T12:15:21.218Z,1013.58
2018-10-18T12:16:21.186Z,1013.62
2018-10-18T12:17:21.194Z,1013.58
2018-10-18T12:18:21.139Z,1013.59
2018-10-18T12:19:21.145Z,1013.66
2018-10-18T12:20:21.131Z,1013.63
2018-10-18T12:21:21.151Z,1013.69
2018-10-18T12:22:21.106Z,1013.70
2018-10-18T12:23:21.108Z,1013.70
2018-10-18T12:24:21.106Z,1013.69
2018-10-18T12:25:21.069Z,1013.63
2018-10-18T12:26:21.091Z,1013.67
2018-10-18T12:27:21.089Z,1013.72
2018-10-18T12:28:21.103Z,1013.71
2018-10-18T12:29:21.019Z,1013.69
2018-10-18T12:30:21.015Z,1013.69
2018-10-18T12:31:21.035Z,1013.69
2018-10-18T12:32:21.000Z,1013.75
2018-10-18T12:33:20.999Z,1013.67
2018-10-18T12:34:20.993Z,1013.74
2018-10-18T12:35:20.955Z,1013.74
2018-10-18T12:36:20.956Z,1013.76
2018-10-18T12:37:21.022Z,1013.76
2018-10-18T12:38:20.935Z,1013.71
2018-10-18T12:39:20.959Z,1013.74
2018-10-18T12:40:20.973Z,1013.76
2018-10-18T12:41:21.138Z,1013.75
2018-10-18T12:42:20.897Z,1013.72
2018-10-18T12:43:20.871Z,1013.76
2018-10-18T12:44:20.872Z,1013.76
2018-10-18T12:45:20.908Z,1013.77
2018-10-18T12:46:20.837Z,1013.77
2018-10-18T12:47:20.863Z,1013.76
2018-10-18T12:48:21.059Z,1013.81
2018-10-18T12:49:20.835Z,1013.76
2018-10-18T12:50:20.793Z,1013.79
2018-10-18T12:51:20.820Z,1013.87
2018-10-18T12:52:20.802Z,1013.82
2018-10-18T12:53:20.761Z,1013.86
2018-10-18T12:54:20.839Z,1013.93
2018-10-18T12:55:20.778Z,1013.90
2018-10-18T12:56:20.726Z,1013.92
2018-10-18T12:57:20.726Z,1013.95
2018-10-18T12:58:20.726Z,1013.95
2018-10-18T12:59:20.718Z,1013.98
2018-10-18T13:00:20.689Z,1013.92
2018-10-18T13:01:21.398Z,1013.92
2018-10-18T13:02:20.755Z,1013.95
2018-10-18T13:03:20.664Z,1013.95
2018-10-18T13:04:20.682Z,1013.96
2018-10-18T13:05:20.621Z,1013.96
2018-10-18T13:06:20.617Z,1013.99
2018-10-18T13:07:20.638Z,1014.01
2018-10-18T13:08:20.593Z,1014.01
2018-10-18T13:09:20.599Z,1014.06
2018-10-18T13:10:20.573Z,1014.00
2018-10-18T13:11:20.561Z,1014.02
2018-10-18T13:12:20.730Z,1014.02
2018-10-18T13:13:20.540Z,1014.02
2018-10-18T13:14:20.533Z,1014.00
2018-10-18T13:15:20.561Z,1014.06
2018-10-18T13:16:20.513Z,1014.02
2018-10-18T13:17:20.531Z,1013.97
2018-10-18T13:18:20.479Z,1014.03
2018-10-18T13:19:20.478Z,1014.05
2018-10-18T13:20:20.489Z,1014.04
2018-10-18T13:21:20.475Z,1014.03
2018-10-18T13:22:20.474Z,1014.01
2018-10-18T13:23:20.433Z,1014.01
2018-10-18T13:24:20.417Z,1014.00
2018-10-18T13:25:20.519Z,1014.04
2018-10-18T13:26:20.402Z,1014.04
2018-10-18T13:27:20.415Z,1014.05
2018-10-18T13:28:20.400Z,1014.01
2018-10-18T13:29:20.407Z,1014.00
2018-10-18T13:30:20.405Z,1013.97
2018-10-18T13:31:20.368Z,1013.97
2018-10-18T13:32:20.348Z,1013.96
2018-10-18T13:33:20.345Z,1013.94
2018-10-18T13:34:20.327Z,1013.96
2018-10-18T13:35:20.328Z,1013.98
2018-10-18T13:36:20.290Z,1013.96
2018-10-18T13:37:20.302Z,1013.90
2018-10-18T13:38:20.272Z,1013.92
2018-10-18T13:39:20.303Z,1013.91
2018-10-18T13:40:20.251Z,1013.92
2018-10-18T13:41:20.238Z,1013.93
2018-10-18T13:42:20.244Z,1013.94
2018-10-18T13:43:20.246Z,1013.97
2018-10-18T13:44:20.189Z,1013.92
2018-10-18T13:45:20.219Z,1013.93
2018-10-18T13:46:20.217Z,1013.95
2018-10-18T13:47:20.182Z,1013.98
2018-10-18T13:48:20.194Z,1014.00
2018-10-18T13:49:20.158Z,1014.04
2018-10-18T13:50:20.276Z,1014.02
2018-10-18T13:51:20.118Z,1014.07
2018-10-18T13:52:20.924Z,1014.00
2018-10-18T13:53:20.091Z,1014.01
2018-10-18T13:54:20.083Z,1014.01
2018-10-18T13:55:20.078Z,1013.97
2018-10-18T13:56:20.052Z,1013.98
2018-10-18T13:57:20.066Z,1013.98
2018-10-18T13:58:20.049Z,1014.01
2018-10-18T13:59:20.118Z,1014.03
2018-10-18T14:01:30.862Z,1014.00
2018-10-18T14:02:31.884Z,1014.07
2018-10-18T14:03:31.844Z,1014.01
2018-10-18T14:04:31.829Z,1014.05
2018-10-18T14:05:31.843Z,1014.02
2018-10-18T14:06:31.809Z,1014.02